Newvida — V7KQ7 — position and weather

sailwx.info

Track history (hours):
 
Tides and Currents Weather Stations Pressure Air Temp Water Temp Dewpoint Dewpoint Depression Visibility Wind Speed Wind Dir Waves Ship Positions

Newvida

Last reported at 2015-Feb-27 20:34 UTC. Time now 2015-Mar-31 18:04 UTC.
Position N 26°45' W 080°03'.
Warning: this ship's position is 31 days out of date.

Length 48 m; draft 2.5 m.

Type: Pleasure craft. MMSI: 538080049.

Date/timePositionNaut miles runAvg speedWind from/ knotsBaromVisibWave heightAir tempDewpointWater temp
2015-Feb-27 20:34N 26°45' W 080°03'1 0.1
2015-Feb-26 19:07N 26°46' W 080°03'9 9.2
2015-Feb-26 18:10N 26°38' W 079°58'711.5
2015-Feb-26 17:33N 26°31' W 079°59'1212.3
2015-Feb-26 16:33N 26°19' W 080°01'1211.8
2015-Feb-26 15:33N 26°08' W 080°04'3 2.8
2015-Feb-26 14:33N 26°07' W 080°07'0 0.1
2015-Feb-26 13:23N 26°07' W 080°07'0 0.0
2015-Feb-26 12:23N 26°07' W 080°07'0 0.0
2015-Feb-26 11:26N 26°07' W 080°07'0 0.0
2015-Feb-26 10:26N 26°07' W 080°07'0 0.0
2015-Feb-26 09:29N 26°07' W 080°07'0 0.0
2015-Feb-26 08:29N 26°07' W 080°07'0 0.0
2015-Feb-26 07:29N 26°07' W 080°07'0 0.0
2015-Feb-26 06:32N 26°07' W 080°07'0 0.0
2015-Feb-26 05:33N 26°07' W 080°07'2 2.3
2015-Feb-26 04:33N 26°04' W 080°07'2 1.7
2015-Feb-26 03:33N 26°06' W 080°07'1 0.9
2015-Feb-26 02:32N 26°07' W 080°07'0 0.1
2015-Feb-26 01:23N 26°07' W 080°07'0 0.0
2015-Feb-26 00:23N 26°07' W 080°07'0 0.0
2015-Feb-25 23:26N 26°07' W 080°07'39 1.1
2015-Feb-24 12:34N 26°46' W 080°03'  
Track history (hours):
 
Tides and Currents Weather Stations Pressure Air Temp Water Temp Dewpoint Dewpoint Depression Visibility Wind Speed Wind Dir Waves Ship Positions

Newvida

Last reported at 2015-Feb-27 20:34 UTC. Time now 2015-Mar-31 18:04 UTC.
Position N 26°45' W 080°03'.
Warning: this ship's position is 31 days out of date.

Length 48 m; draft 2.5 m.

Type: Pleasure craft. MMSI: 538080049.

Date/timePositionNaut miles runAvg speedWind from/ knotsBaromVisibWave heightAir tempDewpointWater temp
2015-Feb-27 20:34N 26°45' W 080°03'1 0.1
2015-Feb-26 19:07N 26°46' W 080°03'9 9.2
2015-Feb-26 18:10N 26°38' W 079°58'711.5
2015-Feb-26 17:33N 26°31' W 079°59'1212.3
2015-Feb-26 16:33N 26°19' W 080°01'1211.8
2015-Feb-26 15:33N 26°08' W 080°04'3 2.8
2015-Feb-26 14:33N 26°07' W 080°07'0 0.1
2015-Feb-26 13:23N 26°07' W 080°07'0 0.0
2015-Feb-26 12:23N 26°07' W 080°07'0 0.0
2015-Feb-26 11:26N 26°07' W 080°07'0 0.0
2015-Feb-26 10:26N 26°07' W 080°07'0 0.0
2015-Feb-26 09:29N 26°07' W 080°07'0 0.0
2015-Feb-26 08:29N 26°07' W 080°07'0 0.0
2015-Feb-26 07:29N 26°07' W 080°07'0 0.0
2015-Feb-26 06:32N 26°07' W 080°07'0 0.0
2015-Feb-26 05:33N 26°07' W 080°07'2 2.3
2015-Feb-26 04:33N 26°04' W 080°07'2 1.7
2015-Feb-26 03:33N 26°06' W 080°07'1 0.9
2015-Feb-26 02:32N 26°07' W 080°07'0 0.1
2015-Feb-26 01:23N 26°07' W 080°07'0 0.0
2015-Feb-26 00:23N 26°07' W 080°07'0 0.0
2015-Feb-25 23:26N 26°07' W 080°07'39 1.1
2015-Feb-24 12:34N 26°46' W 080°03'  

Dump ship's entire track history